PPL weather

Phaplu Airport
Phaplu, Sagarmatha, Nepal

Public forecast

Using degrees Celsius for public forecast. Weather courtesy of forecast.io.

Closest aviation weather report (METAR) to Phaplu Airport

Closest report is Tribhuvan International Airport, 66.1 nm (122.4 km) W. Retrieved 2020/08/06 06:20 UTC (37 minutes ago):

VNKT 060620Z 19006KT 9999 FEW010 SCT030 BKN100 30/22 Q1011 NOSIG

Closest aviation forecast (TAF) to Phaplu Airport

Closest forecast is Tribhuvan International Airport, 66.1 nm (122.4 km) W. Retrieved 2020/08/06 06:51 UTC (6 minutes ago):

TAF TAF VNKT 060500Z 0606/0706 08009KT 9999 FEW010 SCT030 BECMG 0607/0608 25006KT 8000 FEW015 SCT030 BKN100 PROB40 0610/0614 5000 -RA/-TSRA FEW025CB BECMG 0613/0614 22004KT 7000 FEW015 SCT030 BKN100 BECMG 0700/0702 VRB02KT 6000 FEW010 SCT030 BKN100 BECMG 0704/0705 14003KT 8000 FEW015 SCT030 BKN100